createdAt,value
2023-05-19T00:02:12.551Z,101015.38
2023-05-19T00:05:18.529Z,101004.72
2023-05-19T00:08:21.705Z,100996.84
2023-05-19T00:11:25.583Z,101002.19
2023-05-19T00:14:30.440Z,101012.25
2023-05-19T00:17:35.129Z,101008.75
2023-05-19T00:20:38.068Z,101000.94
2023-05-19T00:23:40.995Z,100997.50
2023-05-19T00:26:43.809Z,101003.91
2023-05-19T00:29:47.923Z,101001.38
2023-05-19T00:32:50.974Z,101005.09
2023-05-19T00:35:54.234Z,101002.53
2023-05-19T00:38:57.277Z,100997.31
2023-05-19T00:42:00.757Z,100998.34
2023-05-19T00:45:06.000Z,100996.66
2023-05-19T00:48:08.881Z,100994.03
2023-05-19T00:51:14.681Z,100995.16
2023-05-19T00:54:17.510Z,101002.34
2023-05-19T00:57:20.900Z,100997.84
2023-05-19T01:00:25.563Z,100998.81
2023-05-19T01:03:31.392Z,100992.69
2023-05-19T01:06:34.353Z,100993.69
2023-05-19T01:09:37.423Z,100981.38
2023-05-19T01:12:41.718Z,100994.72
2023-05-19T01:16:01.201Z,100985.00
2023-05-19T01:19:21.078Z,100980.56
2023-05-19T01:22:54.977Z,100986.09
2023-05-19T01:26:19.389Z,100988.97
2023-05-19T01:29:34.202Z,100984.47
2023-05-19T01:32:42.690Z,100994.38
2023-05-19T01:35:47.341Z,100989.03
2023-05-19T01:38:52.640Z,100990.88
2023-05-19T01:41:58.774Z,100982.88
2023-05-19T01:45:02.239Z,100974.81
2023-05-19T01:48:09.923Z,100947.41
2023-05-19T01:51:13.684Z,100972.09
2023-05-19T01:54:16.501Z,100972.06
2023-05-19T01:57:30.442Z,100980.09
2023-05-19T02:00:46.971Z,100978.28
2023-05-19T02:04:16.531Z,100980.97
2023-05-19T02:07:31.246Z,100986.38
2023-05-19T02:10:41.448Z,100981.88
2023-05-19T02:13:45.613Z,100996.28
2023-05-19T02:16:49.775Z,100984.00
2023-05-19T02:19:53.930Z,100998.38
2023-05-19T02:22:56.657Z,100998.56
2023-05-19T02:25:59.334Z,101003.16
2023-05-19T02:29:02.097Z,101002.38
2023-05-19T02:32:05.401Z,101006.06
2023-05-19T02:35:10.380Z,100999.88
2023-05-19T02:38:13.432Z,101003.56
2023-05-19T02:41:17.304Z,100996.47
2023-05-19T02:44:20.060Z,100998.28
2023-05-19T02:47:23.079Z,100971.72
2023-05-19T02:50:27.282Z,100988.56
2023-05-19T02:53:30.057Z,100984.13
2023-05-19T02:56:32.798Z,100983.25
2023-05-19T02:59:35.661Z,100989.63
2023-05-19T03:02:38.857Z,100983.47
2023-05-19T03:05:44.206Z,100984.41
2023-05-19T03:08:46.932Z,100988.09
2023-05-19T03:11:49.747Z,100987.22
2023-05-19T03:14:52.527Z,100976.44
2023-05-19T03:17:55.445Z,100983.66
2023-05-19T03:20:59.587Z,100982.81
2023-05-19T03:24:03.215Z,100978.25
2023-05-19T03:27:06.942Z,100974.72
2023-05-19T03:30:12.996Z,100976.53
2023-05-19T03:33:15.879Z,100980.09
2023-05-19T03:36:20.177Z,100980.09
2023-05-19T03:39:23.161Z,100982.72
2023-05-19T03:42:26.096Z,100972.94
2023-05-19T03:45:29.153Z,100974.63
2023-05-19T03:48:31.960Z,100982.66
2023-05-19T03:51:36.800Z,100987.06
2023-05-19T03:54:40.045Z,100981.63
2023-05-19T03:57:43.425Z,100984.41
2023-05-19T04:00:46.339Z,100986.09
2023-05-19T04:03:49.107Z,100988.66
2023-05-19T04:06:53.282Z,100983.19
2023-05-19T04:09:56.082Z,100997.44
2023-05-19T04:12:58.833Z,100992.78
2023-05-19T04:16:02.110Z,100992.69
2023-05-19T04:19:05.030Z,100996.06
2023-05-19T04:22:09.190Z,101000.41
2023-05-19T04:25:12.055Z,100993.88
2023-05-19T04:28:14.808Z,100988.28
2023-05-19T04:31:17.702Z,100986.38
2023-05-19T04:34:22.086Z,100971.94
2023-05-19T04:37:26.689Z,100988.59
2023-05-19T04:40:31.373Z,100981.16
2023-05-19T04:43:34.463Z,100993.47
2023-05-19T04:46:37.704Z,100991.44
2023-05-19T04:49:40.532Z,100985.91
2023-05-19T04:52:45.615Z,100982.88
2023-05-19T04:55:48.504Z,100983.31
2023-05-19T04:58:51.560Z,100983.84
2023-05-19T05:01:54.480Z,100985.19
2023-05-19T05:04:58.055Z,100979.44
2023-05-19T05:08:03.201Z,100977.19
2023-05-19T05:11:06.624Z,100981.19
2023-05-19T05:14:10.036Z,100972.56
2023-05-19T05:17:13.779Z,100984.78
2023-05-19T05:20:18.052Z,100979.78
2023-05-19T05:23:22.706Z,100983.00
2023-05-19T05:26:31.380Z,100976.25
2023-05-19T05:29:34.392Z,100981.22
2023-05-19T05:32:37.344Z,100980.66
2023-05-19T05:35:40.244Z,100963.75
2023-05-19T05:38:44.419Z,100962.25
2023-05-19T05:41:47.181Z,100966.09
2023-05-19T05:44:50.423Z,100966.16
2023-05-19T05:47:53.840Z,100966.94
2023-05-19T05:50:58.139Z,100958.63
2023-05-19T05:54:03.701Z,100960.22
2023-05-19T05:57:07.381Z,100957.41
2023-05-19T06:00:15.521Z,100947.91
2023-05-19T06:03:18.772Z,100937.34
2023-05-19T06:06:21.750Z,100944.78
2023-05-19T06:09:25.957Z,100936.50
2023-05-19T06:12:28.706Z,100939.09
2023-05-19T06:15:31.501Z,100934.91
2023-05-19T06:18:34.779Z,100926.53
2023-05-19T06:21:37.556Z,100932.38
2023-05-19T06:24:41.774Z,100926.53
2023-05-19T06:27:44.527Z,100916.47
2023-05-19T06:30:47.274Z,100907.75
2023-05-19T06:33:50.030Z,100898.22
2023-05-19T06:36:52.881Z,100899.00
2023-05-19T06:39:57.163Z,100900.16
2023-05-19T06:42:59.911Z,100900.44
2023-05-19T06:46:02.698Z,100895.91
2023-05-19T06:49:05.436Z,100900.72
2023-05-19T06:52:08.466Z,100899.34
2023-05-19T06:55:12.953Z,100894.78
2023-05-19T06:58:16.008Z,100888.22
2023-05-19T07:01:19.200Z,100879.13
2023-05-19T07:04:21.989Z,100879.88
2023-05-19T07:07:25.196Z,100884.03
2023-05-19T07:10:29.497Z,100882.50
2023-05-19T07:13:32.968Z,100884.53
2023-05-19T07:16:35.765Z,100878.03
2023-05-19T07:19:38.544Z,100874.66
2023-05-19T07:22:41.292Z,100875.63
2023-05-19T07:25:45.425Z,100864.28
2023-05-19T07:28:48.138Z,100862.88
2023-05-19T07:31:54.203Z,100858.97
2023-05-19T07:34:57.016Z,100854.50
2023-05-19T07:37:59.760Z,100847.28
2023-05-19T07:41:04.209Z,100839.06
2023-05-19T07:44:07.765Z,100836.81
2023-05-19T07:47:10.745Z,100828.88
2023-05-19T07:50:13.665Z,100826.59
2023-05-19T07:53:16.756Z,100818.69
2023-05-19T07:56:21.594Z,100808.53
2023-05-19T07:59:24.566Z,100821.44
2023-05-19T08:02:27.435Z,100821.22
2023-05-19T08:05:30.932Z,100828.31
2023-05-19T08:08:34.333Z,100822.91
2023-05-19T08:11:38.679Z,100811.81
2023-05-19T08:14:41.455Z,100815.31
2023-05-19T08:17:44.633Z,100820.22
2023-05-19T08:20:47.512Z,100816.28
2023-05-19T08:23:50.322Z,100825.28
2023-05-19T08:26:54.401Z,100814.97
2023-05-19T08:29:57.407Z,100820.94
2023-05-19T08:33:00.204Z,100812.53
2023-05-19T08:36:03.831Z,100809.56
2023-05-19T08:39:06.963Z,100798.91
2023-05-19T08:42:11.595Z,100794.16
2023-05-19T08:45:14.703Z,100785.50
2023-05-19T08:48:19.628Z,100778.91
2023-05-19T08:51:33.252Z,100787.03
2023-05-19T08:54:50.919Z,100781.16
2023-05-19T08:57:55.598Z,100777.75
2023-05-19T09:01:00.999Z,100777.63
2023-05-19T09:04:05.697Z,100768.53
2023-05-19T09:07:09.444Z,100765.44
2023-05-19T09:10:14.833Z,100760.38
2023-05-19T09:13:19.569Z,100759.53
2023-05-19T09:16:22.805Z,100773.81
2023-05-19T09:19:29.878Z,100768.47
2023-05-19T09:22:35.796Z,100765.50
2023-05-19T09:25:47.914Z,100761.78
2023-05-19T09:28:52.591Z,100756.41
2023-05-19T09:32:00.766Z,100752.13
2023-05-19T09:35:04.809Z,100743.22
2023-05-19T09:38:07.614Z,100746.41
2023-05-19T09:41:10.637Z,100745.00
2023-05-19T09:44:23.311Z,100739.50
2023-05-19T09:47:27.006Z,100751.13
2023-05-19T09:50:30.824Z,100731.31
2023-05-19T09:53:35.129Z,100722.91
2023-05-19T09:56:39.615Z,100726.25
2023-05-19T09:59:44.700Z,100719.91
2023-05-19T10:02:50.636Z,100716.00
2023-05-19T10:05:54.135Z,100726.56
2023-05-19T10:09:00.851Z,100715.47
2023-05-19T10:12:04.458Z,100722.03
2023-05-19T10:15:11.331Z,100715.38
2023-05-19T10:18:18.790Z,100712.19
2023-05-19T10:21:21.517Z,100714.66
2023-05-19T10:24:24.326Z,100712.19
2023-05-19T10:27:29.224Z,100716.75
2023-05-19T10:30:36.991Z,100711.53
2023-05-19T10:33:58.649Z,100703.66
2023-05-19T10:37:14.667Z,100707.28
2023-05-19T10:40:23.120Z,100699.38
2023-05-19T10:43:38.248Z,100701.25
2023-05-19T10:46:43.167Z,100712.38
2023-05-19T10:49:46.192Z,100715.13
2023-05-19T10:52:55.628Z,100703.00
2023-05-19T10:55:59.285Z,100696.56
2023-05-19T10:59:02.394Z,100702.13
2023-05-19T11:02:08.560Z,100711.16
2023-05-19T11:05:14.546Z,100703.44
2023-05-19T11:08:18.051Z,100703.44
2023-05-19T11:11:23.421Z,100703.13
2023-05-19T11:14:28.124Z,100698.38
2023-05-19T11:17:33.181Z,100700.19
2023-05-19T11:20:40.345Z,100695.97
2023-05-19T11:23:44.076Z,100700.22
2023-05-19T11:26:47.599Z,100708.34
2023-05-19T11:29:51.255Z,100704.19
2023-05-19T11:32:58.916Z,100685.69
2023-05-19T11:36:02.153Z,100683.16
2023-05-19T11:39:06.035Z,100690.16
2023-05-19T11:42:10.902Z,100684.13
2023-05-19T11:45:13.713Z,100682.47
2023-05-19T11:48:18.464Z,100684.69
2023-05-19T11:51:22.705Z,100679.66
2023-05-19T11:54:31.585Z,100687.00
2023-05-19T11:57:34.491Z,100688.94
2023-05-19T12:00:39.572Z,100678.22
2023-05-19T12:03:44.213Z,100685.25
2023-05-19T12:06:49.975Z,100674.56
2023-05-19T12:09:53.668Z,100682.16
2023-05-19T12:12:57.380Z,100679.53
2023-05-19T12:16:02.456Z,100649.81
2023-05-19T12:19:07.737Z,100682.75
2023-05-19T12:22:11.478Z,100683.94
2023-05-19T12:25:14.731Z,100674.66
2023-05-19T12:28:17.758Z,100678.53
2023-05-19T12:31:23.508Z,100674.16
2023-05-19T12:34:27.759Z,100678.66
2023-05-19T12:37:30.887Z,100670.41
2023-05-19T12:40:34.965Z,100677.94
2023-05-19T12:43:38.227Z,100675.25
2023-05-19T12:46:41.567Z,100662.84
2023-05-19T12:50:02.077Z,100649.66
2023-05-19T12:53:10.118Z,100651.78
2023-05-19T12:56:14.733Z,100650.69
2023-05-19T12:59:37.079Z,100649.03
2023-05-19T13:02:57.045Z,100640.63
2023-05-19T13:06:01.270Z,100640.09
2023-05-19T13:09:04.907Z,100647.44
2023-05-19T13:12:07.994Z,100633.44
2023-05-19T13:15:11.662Z,100637.13
2023-05-19T13:18:14.781Z,100638.47
2023-05-19T13:21:18.988Z,100638.28
2023-05-19T13:24:46.133Z,100615.88
2023-05-19T13:28:33.269Z,100620.63
2023-05-19T13:31:47.704Z,100616.91
2023-05-19T13:35:50.480Z,100622.41
2023-05-19T13:38:56.419Z,100613.91
2023-05-19T13:42:00.198Z,100634.41
2023-05-19T13:45:05.837Z,100613.38
2023-05-19T13:48:12.382Z,100634.22
2023-05-19T13:51:15.903Z,100617.13
2023-05-19T13:58:22.670Z,100604.00
2023-05-19T14:02:09.800Z,100571.63
2023-05-19T14:05:47.280Z,100602.38
2023-05-19T14:09:00.865Z,100593.34
2023-05-19T14:12:35.478Z,100616.00
2023-05-19T14:19:35.764Z,100595.22
2023-05-19T14:22:59.493Z,100594.88
2023-05-19T14:26:24.658Z,100563.00
2023-05-19T14:29:44.026Z,100589.69
2023-05-19T14:33:08.878Z,100539.47
2023-05-19T14:39:59.092Z,100528.25
2023-05-19T14:43:14.440Z,100558.22
2023-05-19T14:46:24.516Z,100560.53
2023-05-19T14:49:27.266Z,100567.78
2023-05-19T14:56:42.544Z,100565.91
2023-05-19T15:00:08.498Z,100511.34
2023-05-19T15:03:23.928Z,100525.72
2023-05-19T15:07:05.834Z,100559.63
2023-05-19T15:10:47.749Z,100511.88
2023-05-19T15:18:22.014Z,100547.72
2023-05-19T15:21:38.309Z,100561.13
2023-05-19T15:24:42.225Z,100562.38
2023-05-19T15:28:11.385Z,100564.00
2023-05-19T15:31:40.671Z,100547.34
2023-05-19T15:35:28.118Z,100517.00
2023-05-19T15:38:57.954Z,100519.00
2023-05-19T15:42:32.863Z,100547.97
2023-05-19T15:45:56.779Z,100516.47
2023-05-19T15:53:31.503Z,100515.09
2023-05-19T15:56:57.232Z,100544.47
2023-05-19T16:00:14.553Z,100482.88
2023-05-19T16:04:08.805Z,100523.19
2023-05-19T16:11:13.217Z,100517.84
2023-05-19T16:14:45.792Z,100527.47
2023-05-19T16:22:07.507Z,100458.13
2023-05-19T16:25:25.052Z,100519.50
2023-05-19T16:28:42.039Z,100477.47
2023-05-19T16:32:26.223Z,100520.81
2023-05-19T16:36:18.348Z,100511.56
2023-05-19T16:40:20.155Z,100483.03
2023-05-19T16:44:06.174Z,100507.31
2023-05-19T16:47:24.269Z,100503.31
2023-05-19T16:50:39.914Z,100518.19
2023-05-19T16:54:39.514Z,100465.69
2023-05-19T16:58:04.452Z,100510.28
2023-05-19T17:01:27.791Z,100507.03
2023-05-19T17:05:19.493Z,100457.41
2023-05-19T17:09:08.270Z,100454.13
2023-05-19T17:15:43.217Z,100492.44
2023-05-19T17:19:02.929Z,100387.13
2023-05-19T17:22:13.634Z,100473.91
2023-05-19T17:25:39.189Z,100499.03
2023-05-19T17:28:52.184Z,100443.75
2023-05-19T17:32:39.885Z,100464.56
2023-05-19T17:35:48.805Z,100490.03
2023-05-19T17:39:13.910Z,100485.69
2023-05-19T17:50:25.440Z,100507.16
2023-05-19T17:53:29.523Z,100490.94
2023-05-19T17:56:42.429Z,100456.28
2023-05-19T17:59:54.049Z,100443.25
2023-05-19T18:02:59.262Z,100439.47
2023-05-19T18:06:24.305Z,100483.06
2023-05-19T18:10:04.941Z,100506.06
2023-05-19T18:13:58.515Z,100495.78
2023-05-19T18:17:19.624Z,100515.09
2023-05-19T18:20:39.731Z,100481.44
2023-05-19T18:23:49.814Z,100510.91
2023-05-19T18:27:09.840Z,100505.53
2023-05-19T18:30:30.934Z,100528.34
2023-05-19T18:34:07.641Z,100452.44
2023-05-19T18:37:38.285Z,100491.53
2023-05-19T18:40:54.194Z,100507.34
2023-05-19T18:44:34.682Z,100471.28
2023-05-19T18:47:50.138Z,100497.69
2023-05-19T18:51:42.563Z,100523.78
2023-05-19T18:54:56.406Z,100461.31
2023-05-19T19:01:51.854Z,100515.09
2023-05-19T19:05:00.572Z,100471.78
2023-05-19T19:11:39.049Z,100533.25
2023-05-19T19:18:58.330Z,100543.75
2023-05-19T19:22:04.965Z,100543.16
2023-05-19T19:25:23.723Z,100486.88
2023-05-19T19:28:48.789Z,100553.06
2023-05-19T19:32:16.980Z,100559.53
2023-05-19T19:35:38.699Z,100528.56
2023-05-19T19:38:58.977Z,100560.66
2023-05-19T19:49:31.279Z,100487.03
2023-05-19T19:52:46.463Z,100561.88
2023-05-19T19:56:24.303Z,100532.50
2023-05-19T20:03:24.740Z,100575.91
2023-05-19T20:06:48.593Z,100535.69
2023-05-19T20:09:56.247Z,100579.25
2023-05-19T20:13:30.632Z,100576.31
2023-05-19T20:17:10.320Z,100591.66
2023-05-19T20:20:29.452Z,100531.41
2023-05-19T20:23:48.892Z,100601.00
2023-05-19T20:27:43.055Z,100599.16
2023-05-19T20:30:48.690Z,100600.88
2023-05-19T20:33:52.822Z,100593.66
2023-05-19T20:36:55.709Z,100588.94
2023-05-19T20:39:58.575Z,100589.16
2023-05-19T20:43:01.313Z,100584.66
2023-05-19T20:46:07.524Z,100591.44
2023-05-19T20:49:11.633Z,100587.88
2023-05-19T20:52:14.326Z,100587.47
2023-05-19T20:55:18.488Z,100589.91
2023-05-19T20:58:21.275Z,100592.09
2023-05-19T21:01:25.665Z,100594.16
2023-05-19T21:04:29.980Z,100595.03
2023-05-19T21:07:32.820Z,100600.66
2023-05-19T21:10:35.753Z,100594.22
2023-05-19T21:13:39.245Z,100586.94
2023-05-19T21:16:42.546Z,100595.69
2023-05-19T21:19:48.039Z,100598.19
2023-05-19T21:22:51.385Z,100592.50
2023-05-19T21:25:54.284Z,100600.53
2023-05-19T21:28:57.131Z,100591.38
2023-05-19T21:32:00.270Z,100596.03
2023-05-19T21:35:06.099Z,100602.38
2023-05-19T21:38:22.545Z,100597.63
2023-05-19T21:41:26.433Z,100608.34
2023-05-19T21:44:29.354Z,100603.09
2023-05-19T21:47:32.137Z,100605.59
2023-05-19T21:50:38.514Z,100606.78
2023-05-19T21:53:41.225Z,100605.03
2023-05-19T21:56:43.989Z,100605.03
2023-05-19T21:59:47.238Z,100609.31
2023-05-19T22:02:50.099Z,100607.16
2023-05-19T22:05:55.318Z,100603.63
2023-05-19T22:09:00.569Z,100608.22
2023-05-19T22:12:03.372Z,100614.53
2023-05-19T22:15:07.307Z,100608.88
2023-05-19T22:18:10.143Z,100611.72
2023-05-19T22:21:14.265Z,100605.19
2023-05-19T22:24:18.538Z,100609.59
2023-05-19T22:27:21.610Z,100601.25
2023-05-19T22:30:24.803Z,100602.13
2023-05-19T22:33:27.544Z,100598.38
2023-05-19T22:36:31.800Z,100599.56
2023-05-19T22:39:34.549Z,100606.94
2023-05-19T22:42:37.307Z,100602.63
2023-05-19T22:45:40.405Z,100597.25
2023-05-19T22:48:43.155Z,100597.41
2023-05-19T22:51:47.264Z,100594.56
2023-05-19T22:54:50.189Z,100594.88
2023-05-19T22:57:53.032Z,100593.88
2023-05-19T23:00:56.181Z,100593.59
2023-05-19T23:03:59.209Z,100581.88
2023-05-19T23:07:03.488Z,100592.06
2023-05-19T23:10:07.577Z,100579.94
2023-05-19T23:13:11.913Z,100570.22
2023-05-19T23:16:14.787Z,100582.19
2023-05-19T23:19:17.932Z,100568.03
2023-05-19T23:22:22.070Z,100574.72
2023-05-19T23:25:24.889Z,100579.63
2023-05-19T23:28:27.839Z,100572.53
2023-05-19T23:31:30.676Z,100579.28
2023-05-19T23:34:33.496Z,100575.19
2023-05-19T23:37:37.639Z,100576.97
2023-05-19T23:40:40.461Z,100570.94
2023-05-19T23:43:43.370Z,100581.94
2023-05-19T23:46:46.188Z,100575.72
2023-05-19T23:49:49.459Z,100567.03
2023-05-19T23:52:53.571Z,100574.41
2023-05-19T23:55:57.287Z,100567.41
2023-05-19T23:59:02.120Z,100573.03
